Terminal Aerodrome Forecast
Issued by NWS Upton, NY

Home | Current Version | Previous Version | Text Only | Print | Product List | Glossary On
Versions: 1 2 3 4 5 6 7 8 9 10 11 12 13 14 15 16 17 18 19 20 21 22 23 24 25 26 27 28 29 30
000
FTUS41 KOKX 221756
TAFISP
TAF
KISP 221756Z 2218/2318 VRB03KT P6SM SCT025 OVC040
     FM230300 14005KT P6SM SCT008 OVC070 WS020/21030KT
     FM230900 17008KT 5SM BR VCSH OVC008 WS020/20040KT
     FM231100 17010G19KT 5SM -SHRA BR OVC008 WS020/20045KT
     FM231200 17012G20KT 3SM SHRA BR OVC008 WS020/20050KT
     FM231400 18017G26KT 3SM SHRA BR OVC010 WS020/20050KT=

USA.gov is the U.S. government's official web portal to all federal, state and local government web resources and services.